sensor_id;sensor_type;location;lat;lon;timestamp;P1;durP1;ratioP1;P2;durP2;ratioP2
43086;SDS011;28708;52.224;6.924;2023-07-22T00:01:18;9.30;;;5.70;;
43086;SDS011;28708;52.224;6.924;2023-07-22T00:03:44;12.50;;;5.70;;
43086;SDS011;28708;52.224;6.924;2023-07-22T00:06:10;12.23;;;6.00;;
43086;SDS011;28708;52.224;6.924;2023-07-22T00:08:36;10.93;;;5.70;;
43086;SDS011;28708;52.224;6.924;2023-07-22T00:11:03;11.60;;;6.60;;
43086;SDS011;28708;52.224;6.924;2023-07-22T00:13:30;12.47;;;6.23;;
43086;SDS011;28708;52.224;6.924;2023-07-22T00:15:56;13.23;;;7.20;;
43086;SDS011;28708;52.224;6.924;2023-07-22T00:18:24;10.73;;;6.57;;
43086;SDS011;28708;52.224;6.924;2023-07-22T00:20:50;14.03;;;7.10;;
43086;SDS011;28708;52.224;6.924;2023-07-22T00:23:16;11.10;;;7.10;;
43086;SDS011;28708;52.224;6.924;2023-07-22T00:25:42;12.57;;;7.47;;
43086;SDS011;28708;52.224;6.924;2023-07-22T00:28:08;13.50;;;7.33;;
43086;SDS011;28708;52.224;6.924;2023-07-22T00:30:33;14.47;;;7.60;;
43086;SDS011;28708;52.224;6.924;2023-07-22T00:33:00;14.60;;;8.37;;
43086;SDS011;28708;52.224;6.924;2023-07-22T00:35:26;14.60;;;7.67;;
43086;SDS011;28708;52.224;6.924;2023-07-22T00:37:52;14.40;;;7.60;;
43086;SDS011;28708;52.224;6.924;2023-07-22T00:40:17;16.37;;;7.00;;
43086;SDS011;28708;52.224;6.924;2023-07-22T00:42:44;14.33;;;8.70;;
43086;SDS011;28708;52.224;6.924;2023-07-22T00:45:10;18.30;;;8.07;;
43086;SDS011;28708;52.224;6.924;2023-07-22T00:47:36;14.03;;;7.30;;
43086;SDS011;28708;52.224;6.924;2023-07-22T00:50:02;13.83;;;8.57;;
43086;SDS011;28708;52.224;6.924;2023-07-22T00:52:29;12.93;;;7.67;;
43086;SDS011;28708;52.224;6.924;2023-07-22T00:54:55;13.43;;;7.63;;
43086;SDS011;28708;52.224;6.924;2023-07-22T00:57:21;15.30;;;8.07;;
43086;SDS011;28708;52.224;6.924;2023-07-22T00:59:47;15.93;;;8.03;;
43086;SDS011;28708;52.224;6.924;2023-07-22T01:02:14;12.00;;;7.63;;
43086;SDS011;28708;52.224;6.924;2023-07-22T01:04:39;12.80;;;7.63;;
43086;SDS011;28708;52.224;6.924;2023-07-22T01:07:05;13.93;;;7.77;;
43086;SDS011;28708;52.224;6.924;2023-07-22T01:09:38;12.60;;;7.40;;
43086;SDS011;28708;52.224;6.924;2023-07-22T01:12:05;13.80;;;8.13;;
43086;SDS011;28708;52.224;6.924;2023-07-22T01:14:33;13.33;;;7.73;;
43086;SDS011;28708;52.224;6.924;2023-07-22T01:17:00;16.10;;;8.27;;
43086;SDS011;28708;52.224;6.924;2023-07-22T01:19:28;13.63;;;7.77;;
43086;SDS011;28708;52.224;6.924;2023-07-22T01:21:54;15.83;;;8.77;;
43086;SDS011;28708;52.224;6.924;2023-07-22T01:24:21;15.07;;;8.80;;
43086;SDS011;28708;52.224;6.924;2023-07-22T01:26:47;15.97;;;8.43;;
43086;SDS011;28708;52.224;6.924;2023-07-22T01:29:13;17.63;;;9.23;;
43086;SDS011;28708;52.224;6.924;2023-07-22T01:31:38;15.20;;;8.97;;
43086;SDS011;28708;52.224;6.924;2023-07-22T01:34:04;17.27;;;9.97;;
43086;SDS011;28708;52.224;6.924;2023-07-22T01:36:30;14.23;;;8.67;;
43086;SDS011;28708;52.224;6.924;2023-07-22T01:38:56;17.67;;;9.83;;
43086;SDS011;28708;52.224;6.924;2023-07-22T01:41:22;14.47;;;8.83;;
43086;SDS011;28708;52.224;6.924;2023-07-22T01:43:48;18.13;;;10.33;;
43086;SDS011;28708;52.224;6.924;2023-07-22T01:46:14;16.40;;;9.60;;
43086;SDS011;28708;52.224;6.924;2023-07-22T01:48:40;15.20;;;9.53;;
43086;SDS011;28708;52.224;6.924;2023-07-22T01:51:05;15.70;;;9.53;;
43086;SDS011;28708;52.224;6.924;2023-07-22T01:53:31;16.70;;;9.93;;
43086;SDS011;28708;52.224;6.924;2023-07-22T01:55:57;16.00;;;10.10;;
43086;SDS011;28708;52.224;6.924;2023-07-22T01:58:22;17.33;;;9.33;;
43086;SDS011;28708;52.224;6.924;2023-07-22T02:00:51;17.73;;;10.00;;
43086;SDS011;28708;52.224;6.924;2023-07-22T02:05:45;15.77;;;10.13;;
43086;SDS011;28708;52.224;6.924;2023-07-22T02:08:11;18.47;;;10.07;;
43086;SDS011;28708;52.224;6.924;2023-07-22T02:10:36;18.37;;;10.43;;
43086;SDS011;28708;52.224;6.924;2023-07-22T02:13:02;15.37;;;10.03;;
43086;SDS011;28708;52.224;6.924;2023-07-22T02:15:30;17.67;;;10.47;;
43086;SDS011;28708;52.224;6.924;2023-07-22T02:17:57;19.97;;;11.33;;
43086;SDS011;28708;52.224;6.924;2023-07-22T02:20:23;19.17;;;10.23;;
43086;SDS011;28708;52.224;6.924;2023-07-22T02:22:49;17.53;;;10.30;;
43086;SDS011;28708;52.224;6.924;2023-07-22T02:25:14;20.93;;;11.33;;
43086;SDS011;28708;52.224;6.924;2023-07-22T02:27:40;20.53;;;11.63;;
43086;SDS011;28708;52.224;6.924;2023-07-22T02:30:07;20.43;;;11.67;;
43086;SDS011;28708;52.224;6.924;2023-07-22T02:32:37;20.10;;;11.25;;
43086;SDS011;28708;52.224;6.924;2023-07-22T02:35:06;21.83;;;11.90;;
43086;SDS011;28708;52.224;6.924;2023-07-22T02:37:33;23.83;;;11.27;;
43086;SDS011;28708;52.224;6.924;2023-07-22T02:40:01;19.73;;;10.97;;
43086;SDS011;28708;52.224;6.924;2023-07-22T02:42:34;23.67;;;13.40;;
43086;SDS011;28708;52.224;6.924;2023-07-22T02:45:00;27.77;;;12.33;;
43086;SDS011;28708;52.224;6.924;2023-07-22T02:47:27;20.57;;;12.70;;
43086;SDS011;28708;52.224;6.924;2023-07-22T02:49:53;22.80;;;12.47;;
43086;SDS011;28708;52.224;6.924;2023-07-22T02:52:19;25.87;;;13.03;;
43086;SDS011;28708;52.224;6.924;2023-07-22T02:55:03;22.60;;;13.30;;
43086;SDS011;28708;52.224;6.924;2023-07-22T02:57:44;23.20;;;12.77;;
43086;SDS011;28708;52.224;6.924;2023-07-22T03:00:11;21.67;;;13.47;;
43086;SDS011;28708;52.224;6.924;2023-07-22T03:02:38;21.37;;;12.83;;
43086;SDS011;28708;52.224;6.924;2023-07-22T03:05:05;27.57;;;13.67;;
43086;SDS011;28708;52.224;6.924;2023-07-22T03:07:33;21.80;;;13.07;;
43086;SDS011;28708;52.224;6.924;2023-07-22T03:10:00;24.90;;;13.97;;
43086;SDS011;28708;52.224;6.924;2023-07-22T03:12:26;24.40;;;13.50;;
43086;SDS011;28708;52.224;6.924;2023-07-22T03:14:52;25.63;;;14.33;;
43086;SDS011;28708;52.224;6.924;2023-07-22T03:17:18;26.00;;;14.97;;
43086;SDS011;28708;52.224;6.924;2023-07-22T03:19:44;27.93;;;14.17;;
43086;SDS011;28708;52.224;6.924;2023-07-22T03:22:13;23.20;;;14.07;;
43086;SDS011;28708;52.224;6.924;2023-07-22T03:24:39;24.90;;;14.85;;
43086;SDS011;28708;52.224;6.924;2023-07-22T03:27:05;24.57;;;14.37;;
43086;SDS011;28708;52.224;6.924;2023-07-22T03:29:31;24.77;;;14.07;;
43086;SDS011;28708;52.224;6.924;2023-07-22T03:31:57;26.40;;;14.43;;
43086;SDS011;28708;52.224;6.924;2023-07-22T03:34:25;27.07;;;15.13;;
43086;SDS011;28708;52.224;6.924;2023-07-22T03:36:54;25.77;;;15.45;;
43086;SDS011;28708;52.224;6.924;2023-07-22T03:39:20;27.03;;;15.00;;
43086;SDS011;28708;52.224;6.924;2023-07-22T03:41:46;25.63;;;15.33;;
43086;SDS011;28708;52.224;6.924;2023-07-22T03:44:12;27.93;;;15.20;;
43086;SDS011;28708;52.224;6.924;2023-07-22T03:46:38;25.73;;;14.90;;
43086;SDS011;28708;52.224;6.924;2023-07-22T03:49:04;24.73;;;15.40;;
43086;SDS011;28708;52.224;6.924;2023-07-22T03:51:29;28.60;;;16.33;;
43086;SDS011;28708;52.224;6.924;2023-07-22T03:53:55;28.43;;;16.13;;
43086;SDS011;28708;52.224;6.924;2023-07-22T03:56:21;26.93;;;16.00;;
43086;SDS011;28708;52.224;6.924;2023-07-22T03:58:49;28.40;;;16.53;;
43086;SDS011;28708;52.224;6.924;2023-07-22T04:01:18;24.67;;;15.17;;
43086;SDS011;28708;52.224;6.924;2023-07-22T04:03:44;27.73;;;15.17;;
43086;SDS011;28708;52.224;6.924;2023-07-22T04:06:10;28.27;;;16.87;;
43086;SDS011;28708;52.224;6.924;2023-07-22T04:08:36;26.70;;;14.97;;
43086;SDS011;28708;52.224;6.924;2023-07-22T04:11:02;27.70;;;15.07;;
43086;SDS011;28708;52.224;6.924;2023-07-22T04:13:27;27.67;;;15.77;;
43086;SDS011;28708;52.224;6.924;2023-07-22T04:15:53;26.63;;;16.07;;
43086;SDS011;28708;52.224;6.924;2023-07-22T04:18:19;28.00;;;17.13;;
43086;SDS011;28708;52.224;6.924;2023-07-22T04:20:45;32.93;;;17.47;;
43086;SDS011;28708;52.224;6.924;2023-07-22T04:23:13;29.83;;;17.33;;
43086;SDS011;28708;52.224;6.924;2023-07-22T04:25:39;30.00;;;15.40;;
43086;SDS011;28708;52.224;6.924;2023-07-22T04:28:08;28.90;;;15.60;;
43086;SDS011;28708;52.224;6.924;2023-07-22T04:30:34;26.13;;;15.73;;
43086;SDS011;28708;52.224;6.924;2023-07-22T04:33:03;32.03;;;16.70;;
43086;SDS011;28708;52.224;6.924;2023-07-22T04:35:33;29.00;;;16.27;;
43086;SDS011;28708;52.224;6.924;2023-07-22T04:38:03;28.03;;;16.70;;
43086;SDS011;28708;52.224;6.924;2023-07-22T04:40:32;31.43;;;16.97;;
43086;SDS011;28708;52.224;6.924;2023-07-22T04:42:58;30.33;;;16.90;;
43086;SDS011;28708;52.224;6.924;2023-07-22T04:45:23;27.30;;;15.70;;
43086;SDS011;28708;52.224;6.924;2023-07-22T04:47:49;29.53;;;16.77;;
43086;SDS011;28708;52.224;6.924;2023-07-22T04:50:16;27.87;;;16.17;;
43086;SDS011;28708;52.224;6.924;2023-07-22T04:52:42;25.00;;;15.53;;
43086;SDS011;28708;52.224;6.924;2023-07-22T04:55:10;26.57;;;15.27;;
43086;SDS011;28708;52.224;6.924;2023-07-22T04:57:40;29.10;;;16.87;;
43086;SDS011;28708;52.224;6.924;2023-07-22T05:00:10;25.70;;;17.10;;
43086;SDS011;28708;52.224;6.924;2023-07-22T05:02:41;25.73;;;16.27;;
43086;SDS011;28708;52.224;6.924;2023-07-22T05:05:11;27.50;;;16.35;;
43086;SDS011;28708;52.224;6.924;2023-07-22T05:07:37;31.60;;;17.47;;
43086;SDS011;28708;52.224;6.924;2023-07-22T05:10:03;28.70;;;17.60;;
43086;SDS011;28708;52.224;6.924;2023-07-22T05:12:29;28.07;;;17.30;;
43086;SDS011;28708;52.224;6.924;2023-07-22T05:14:55;28.83;;;17.13;;
43086;SDS011;28708;52.224;6.924;2023-07-22T05:17:21;26.77;;;15.70;;
43086;SDS011;28708;52.224;6.924;2023-07-22T05:19:46;29.50;;;17.57;;
43086;SDS011;28708;52.224;6.924;2023-07-22T05:22:14;24.77;;;15.63;;
43086;SDS011;28708;52.224;6.924;2023-07-22T05:24:40;26.90;;;16.40;;
43086;SDS011;28708;52.224;6.924;2023-07-22T05:27:05;30.30;;;17.03;;
43086;SDS011;28708;52.224;6.924;2023-07-22T05:29:31;28.03;;;17.17;;
43086;SDS011;28708;52.224;6.924;2023-07-22T05:31:57;30.23;;;16.83;;
43086;SDS011;28708;52.224;6.924;2023-07-22T05:34:22;27.30;;;16.37;;
43086;SDS011;28708;52.224;6.924;2023-07-22T05:36:48;27.47;;;16.93;;
43086;SDS011;28708;52.224;6.924;2023-07-22T05:39:14;34.23;;;18.43;;
43086;SDS011;28708;52.224;6.924;2023-07-22T05:41:42;33.03;;;17.40;;
43086;SDS011;28708;52.224;6.924;2023-07-22T05:44:08;28.10;;;17.40;;
43086;SDS011;28708;52.224;6.924;2023-07-22T05:46:34;27.53;;;16.87;;
43086;SDS011;28708;52.224;6.924;2023-07-22T05:48:59;28.83;;;17.57;;
43086;SDS011;28708;52.224;6.924;2023-07-22T05:51:25;32.97;;;18.23;;
43086;SDS011;28708;52.224;6.924;2023-07-22T05:53:51;31.73;;;18.77;;
43086;SDS011;28708;52.224;6.924;2023-07-22T05:56:17;29.33;;;17.83;;
43086;SDS011;28708;52.224;6.924;2023-07-22T05:58:42;31.13;;;18.13;;
43086;SDS011;28708;52.224;6.924;2023-07-22T06:01:09;31.30;;;19.00;;
43086;SDS011;28708;52.224;6.924;2023-07-22T06:03:37;28.23;;;17.30;;
43086;SDS011;28708;52.224;6.924;2023-07-22T06:06:02;33.67;;;19.30;;
43086;SDS011;28708;52.224;6.924;2023-07-22T06:08:29;31.97;;;19.50;;
43086;SDS011;28708;52.224;6.924;2023-07-22T06:10:55;30.77;;;19.27;;
43086;SDS011;28708;52.224;6.924;2023-07-22T06:13:21;34.10;;;18.53;;
43086;SDS011;28708;52.224;6.924;2023-07-22T06:15:47;31.17;;;18.97;;
43086;SDS011;28708;52.224;6.924;2023-07-22T06:18:13;33.07;;;18.70;;
43086;SDS011;28708;52.224;6.924;2023-07-22T06:20:38;30.47;;;18.77;;
43086;SDS011;28708;52.224;6.924;2023-07-22T06:23:04;33.73;;;18.20;;
43086;SDS011;28708;52.224;6.924;2023-07-22T06:25:30;32.20;;;19.40;;
43086;SDS011;28708;52.224;6.924;2023-07-22T06:27:56;32.70;;;19.43;;
43086;SDS011;28708;52.224;6.924;2023-07-22T06:30:22;34.77;;;20.17;;
43086;SDS011;28708;52.224;6.924;2023-07-22T06:32:47;29.83;;;18.67;;
43086;SDS011;28708;52.224;6.924;2023-07-22T06:35:13;37.13;;;20.37;;
43086;SDS011;28708;52.224;6.924;2023-07-22T06:37:39;32.60;;;19.63;;
43086;SDS011;28708;52.224;6.924;2023-07-22T06:40:05;30.70;;;18.60;;
43086;SDS011;28708;52.224;6.924;2023-07-22T06:42:31;34.57;;;19.93;;
43086;SDS011;28708;52.224;6.924;2023-07-22T06:44:57;29.93;;;18.27;;
43086;SDS011;28708;52.224;6.924;2023-07-22T06:47:23;33.53;;;19.87;;
43086;SDS011;28708;52.224;6.924;2023-07-22T06:49:49;33.87;;;18.90;;
43086;SDS011;28708;52.224;6.924;2023-07-22T06:52:15;36.03;;;18.67;;
43086;SDS011;28708;52.224;6.924;2023-07-22T06:54:41;32.33;;;18.17;;
43086;SDS011;28708;52.224;6.924;2023-07-22T06:57:07;29.10;;;17.83;;
43086;SDS011;28708;52.224;6.924;2023-07-22T06:59:33;28.87;;;17.93;;
43086;SDS011;28708;52.224;6.924;2023-07-22T07:01:59;31.50;;;18.40;;
43086;SDS011;28708;52.224;6.924;2023-07-22T07:04:24;28.87;;;17.53;;
43086;SDS011;28708;52.224;6.924;2023-07-22T07:06:51;33.03;;;17.73;;
43086;SDS011;28708;52.224;6.924;2023-07-22T07:09:16;29.90;;;17.40;;
43086;SDS011;28708;52.224;6.924;2023-07-22T07:11:42;29.27;;;17.67;;
43086;SDS011;28708;52.224;6.924;2023-07-22T07:14:08;27.63;;;17.03;;
43086;SDS011;28708;52.224;6.924;2023-07-22T07:16:33;29.03;;;17.40;;
43086;SDS011;28708;52.224;6.924;2023-07-22T07:19:00;34.57;;;18.97;;
43086;SDS011;28708;52.224;6.924;2023-07-22T07:21:27;33.17;;;18.17;;
43086;SDS011;28708;52.224;6.924;2023-07-22T07:23:53;30.67;;;18.60;;
43086;SDS011;28708;52.224;6.924;2023-07-22T07:26:20;31.17;;;18.93;;
43086;SDS011;28708;52.224;6.924;2023-07-22T07:28:46;34.70;;;18.67;;
43086;SDS011;28708;52.224;6.924;2023-07-22T07:31:13;29.13;;;16.63;;
43086;SDS011;28708;52.224;6.924;2023-07-22T07:33:38;30.40;;;18.17;;
43086;SDS011;28708;52.224;6.924;2023-07-22T07:36:04;25.10;;;16.97;;
43086;SDS011;28708;52.224;6.924;2023-07-22T07:38:30;28.27;;;18.13;;
43086;SDS011;28708;52.224;6.924;2023-07-22T07:40:57;27.53;;;15.93;;
43086;SDS011;28708;52.224;6.924;2023-07-22T07:46:18;30.60;;;17.40;;
43086;SDS011;28708;52.224;6.924;2023-07-22T07:48:48;27.08;;;16.17;;
43086;SDS011;28708;52.224;6.924;2023-07-22T07:51:15;27.57;;;15.47;;
43086;SDS011;28708;52.224;6.924;2023-07-22T07:53:42;28.73;;;15.50;;
43086;SDS011;28708;52.224;6.924;2023-07-22T07:56:09;30.13;;;17.27;;
43086;SDS011;28708;52.224;6.924;2023-07-22T07:58:36;26.23;;;15.20;;
43086;SDS011;28708;52.224;6.924;2023-07-22T08:01:02;26.10;;;15.73;;
43086;SDS011;28708;52.224;6.924;2023-07-22T08:03:28;28.53;;;15.43;;
43086;SDS011;28708;52.224;6.924;2023-07-22T08:05:55;24.23;;;14.97;;
43086;SDS011;28708;52.224;6.924;2023-07-22T08:08:21;24.73;;;14.20;;
43086;SDS011;28708;52.224;6.924;2023-07-22T08:10:47;24.90;;;14.83;;
43086;SDS011;28708;52.224;6.924;2023-07-22T08:13:21;26.70;;;14.50;;
43086;SDS011;28708;52.224;6.924;2023-07-22T08:15:47;26.33;;;15.03;;
43086;SDS011;28708;52.224;6.924;2023-07-22T08:18:13;23.83;;;14.13;;
43086;SDS011;28708;52.224;6.924;2023-07-22T08:20:38;23.07;;;13.87;;
43086;SDS011;28708;52.224;6.924;2023-07-22T08:23:04;18.00;;;10.90;;
43086;SDS011;28708;52.224;6.924;2023-07-22T08:25:30;24.03;;;12.87;;
43086;SDS011;28708;52.224;6.924;2023-07-22T08:27:55;20.00;;;11.83;;
43086;SDS011;28708;52.224;6.924;2023-07-22T08:30:21;17.70;;;11.00;;
43086;SDS011;28708;52.224;6.924;2023-07-22T08:32:47;23.00;;;14.07;;
43086;SDS011;28708;52.224;6.924;2023-07-22T08:35:12;16.88;;;11.25;;
43086;SDS011;28708;52.224;6.924;2023-07-22T08:37:38;17.02;;;9.77;;
43086;SDS011;28708;52.224;6.924;2023-07-22T08:40:04;16.40;;;9.90;;
43086;SDS011;28708;52.224;6.924;2023-07-22T08:42:30;16.25;;;9.65;;
43086;SDS011;28708;52.224;6.924;2023-07-22T08:44:59;14.32;;;9.05;;
43086;SDS011;28708;52.224;6.924;2023-07-22T08:47:28;14.10;;;8.13;;
43086;SDS011;28708;52.224;6.924;2023-07-22T08:49:55;14.68;;;7.97;;
43086;SDS011;28708;52.224;6.924;2023-07-22T08:52:24;14.25;;;8.48;;
43086;SDS011;28708;52.224;6.924;2023-07-22T08:54:49;12.38;;;7.55;;
43086;SDS011;28708;52.224;6.924;2023-07-22T08:57:16;13.57;;;7.22;;
43086;SDS011;28708;52.224;6.924;2023-07-22T08:59:43;14.55;;;7.72;;
43086;SDS011;28708;52.224;6.924;2023-07-22T09:02:12;13.27;;;7.55;;
43086;SDS011;28708;52.224;6.924;2023-07-22T09:04:38;12.45;;;7.25;;
43086;SDS011;28708;52.224;6.924;2023-07-22T09:07:07;12.93;;;7.47;;
43086;SDS011;28708;52.224;6.924;2023-07-22T09:09:34;12.80;;;8.07;;
43086;SDS011;28708;52.224;6.924;2023-07-22T09:12:01;14.98;;;7.15;;
43086;SDS011;28708;52.224;6.924;2023-07-22T09:14:27;14.73;;;7.70;;
43086;SDS011;28708;52.224;6.924;2023-07-22T09:16:57;13.13;;;6.95;;
43086;SDS011;28708;52.224;6.924;2023-07-22T09:19:23;12.02;;;7.85;;
43086;SDS011;28708;52.224;6.924;2023-07-22T09:21:48;12.63;;;8.18;;
43086;SDS011;28708;52.224;6.924;2023-07-22T09:24:24;12.70;;;7.10;;
43086;SDS011;28708;52.224;6.924;2023-07-22T09:26:50;13.35;;;7.75;;
43086;SDS011;28708;52.224;6.924;2023-07-22T09:29:17;14.23;;;7.93;;
43086;SDS011;28708;52.224;6.924;2023-07-22T09:31:49;13.37;;;7.67;;
43086;SDS011;28708;52.224;6.924;2023-07-22T09:34:16;14.43;;;8.67;;
43086;SDS011;28708;52.224;6.924;2023-07-22T09:36:55;15.57;;;8.47;;
43086;SDS011;28708;52.224;6.924;2023-07-22T09:39:23;11.00;;;7.57;;
43086;SDS011;28708;52.224;6.924;2023-07-22T09:41:49;13.17;;;8.10;;
43086;SDS011;28708;52.224;6.924;2023-07-22T09:44:15;13.10;;;8.20;;
43086;SDS011;28708;52.224;6.924;2023-07-22T09:46:41;15.37;;;8.33;;
43086;SDS011;28708;52.224;6.924;2023-07-22T09:49:11;16.75;;;9.60;;
43086;SDS011;28708;52.224;6.924;2023-07-22T09:51:38;19.27;;;10.27;;
43086;SDS011;28708;52.224;6.924;2023-07-22T09:54:05;17.07;;;9.60;;
43086;SDS011;28708;52.224;6.924;2023-07-22T09:56:32;15.20;;;8.80;;
43086;SDS011;28708;52.224;6.924;2023-07-22T09:59:08;14.17;;;9.20;;
43086;SDS011;28708;52.224;6.924;2023-07-22T10:01:37;17.93;;;9.00;;
43086;SDS011;28708;52.224;6.924;2023-07-22T10:04:04;13.33;;;7.60;;
43086;SDS011;28708;52.224;6.924;2023-07-22T10:06:33;16.63;;;8.00;;
43086;SDS011;28708;52.224;6.924;2023-07-22T10:09:07;14.40;;;7.67;;
43086;SDS011;28708;52.224;6.924;2023-07-22T10:11:37;13.20;;;7.63;;
43086;SDS011;28708;52.224;6.924;2023-07-22T10:14:04;13.32;;;8.48;;
43086;SDS011;28708;52.224;6.924;2023-07-22T10:16:30;13.93;;;7.85;;
43086;SDS011;28708;52.224;6.924;2023-07-22T10:18:57;13.48;;;7.70;;
43086;SDS011;28708;52.224;6.924;2023-07-22T10:21:24;12.35;;;7.57;;
43086;SDS011;28708;52.224;6.924;2023-07-22T10:23:51;14.67;;;8.60;;
43086;SDS011;28708;52.224;6.924;2023-07-22T10:26:18;18.17;;;8.50;;
43086;SDS011;28708;52.224;6.924;2023-07-22T10:28:45;14.57;;;8.00;;
43086;SDS011;28708;52.224;6.924;2023-07-22T10:31:12;13.40;;;7.18;;
43086;SDS011;28708;52.224;6.924;2023-07-22T10:33:46;14.10;;;7.23;;
43086;SDS011;28708;52.224;6.924;2023-07-22T10:36:13;12.03;;;7.37;;
43086;SDS011;28708;52.224;6.924;2023-07-22T10:38:41;11.90;;;7.10;;
43086;SDS011;28708;52.224;6.924;2023-07-22T10:41:14;14.65;;;7.30;;
43086;SDS011;28708;52.224;6.924;2023-07-22T10:43:54;11.98;;;7.38;;
43086;SDS011;28708;52.224;6.924;2023-07-22T10:46:34;15.30;;;7.50;;
43086;SDS011;28708;52.224;6.924;2023-07-22T10:49:14;11.03;;;6.43;;
43086;SDS011;28708;52.224;6.924;2023-07-22T10:51:41;13.02;;;7.30;;
43086;SDS011;28708;52.224;6.924;2023-07-22T10:54:14;16.00;;;7.82;;
43086;SDS011;28708;52.224;6.924;2023-07-22T10:56:44;15.95;;;7.63;;
43086;SDS011;28708;52.224;6.924;2023-07-22T10:59:10;11.93;;;7.78;;
43086;SDS011;28708;52.224;6.924;2023-07-22T11:01:37;12.23;;;6.83;;
43086;SDS011;28708;52.224;6.924;2023-07-22T11:11:55;17.00;;;8.00;;
43086;SDS011;28708;52.224;6.924;2023-07-22T11:14:26;13.17;;;7.27;;
43086;SDS011;28708;52.224;6.924;2023-07-22T11:16:53;11.40;;;7.23;;
43086;SDS011;28708;52.224;6.924;2023-07-22T11:19:22;9.67;;;5.90;;
43086;SDS011;28708;52.224;6.924;2023-07-22T11:21:49;12.90;;;5.87;;
43086;SDS011;28708;52.224;6.924;2023-07-22T11:24:16;13.65;;;5.82;;
43086;SDS011;28708;52.224;6.924;2023-07-22T11:26:42;8.95;;;5.85;;
43086;SDS011;28708;52.224;6.924;2023-07-22T11:29:08;14.82;;;6.68;;
43086;SDS011;28708;52.224;6.924;2023-07-22T11:31:35;12.30;;;6.28;;
43086;SDS011;28708;52.224;6.924;2023-07-22T11:34:05;9.70;;;5.05;;
43086;SDS011;28708;52.224;6.924;2023-07-22T11:36:31;11.35;;;5.90;;
43086;SDS011;28708;52.224;6.924;2023-07-22T11:39:04;10.05;;;5.88;;
43086;SDS011;28708;52.224;6.924;2023-07-22T11:41:31;13.32;;;5.28;;
43086;SDS011;28708;52.224;6.924;2023-07-22T11:43:58;7.75;;;5.28;;
43086;SDS011;28708;52.224;6.924;2023-07-22T11:46:25;9.75;;;5.53;;
43086;SDS011;28708;52.224;6.924;2023-07-22T11:48:51;9.65;;;5.78;;
43086;SDS011;28708;52.224;6.924;2023-07-22T11:51:22;11.57;;;6.35;;
43086;SDS011;28708;52.224;6.924;2023-07-22T11:53:49;11.02;;;6.38;;
43086;SDS011;28708;52.224;6.924;2023-07-22T11:56:23;10.65;;;5.20;;
43086;SDS011;28708;52.224;6.924;2023-07-22T11:58:53;11.93;;;5.38;;
43086;SDS011;28708;52.224;6.924;2023-07-22T12:01:20;7.32;;;4.45;;
43086;SDS011;28708;52.224;6.924;2023-07-22T12:03:47;6.95;;;3.90;;
43086;SDS011;28708;52.224;6.924;2023-07-22T12:06:13;8.68;;;4.30;;
43086;SDS011;28708;52.224;6.924;2023-07-22T12:08:44;6.47;;;3.85;;
43086;SDS011;28708;52.224;6.924;2023-07-22T12:11:17;5.75;;;3.88;;
43086;SDS011;28708;52.224;6.924;2023-07-22T12:13:44;9.10;;;4.22;;
43086;SDS011;28708;52.224;6.924;2023-07-22T12:16:24;7.47;;;3.83;;
43086;SDS011;28708;52.224;6.924;2023-07-22T12:18:50;8.02;;;4.35;;
43086;SDS011;28708;52.224;6.924;2023-07-22T12:21:19;10.85;;;4.53;;
43086;SDS011;28708;52.224;6.924;2023-07-22T12:23:45;10.03;;;4.47;;
43086;SDS011;28708;52.224;6.924;2023-07-22T12:26:11;8.90;;;4.38;;
43086;SDS011;28708;52.224;6.924;2023-07-22T12:28:36;11.25;;;4.38;;
43086;SDS011;28708;52.224;6.924;2023-07-22T12:31:02;14.68;;;5.32;;
43086;SDS011;28708;52.224;6.924;2023-07-22T12:33:28;6.25;;;4.03;;
43086;SDS011;28708;52.224;6.924;2023-07-22T12:35:54;9.15;;;5.47;;
43086;SDS011;28708;52.224;6.924;2023-07-22T12:38:21;12.20;;;6.55;;
43086;SDS011;28708;52.224;6.924;2023-07-22T12:40:47;13.15;;;5.85;;
43086;SDS011;28708;52.224;6.924;2023-07-22T12:43:12;13.73;;;5.85;;
43086;SDS011;28708;52.224;6.924;2023-07-22T12:45:38;10.82;;;5.68;;
43086;SDS011;28708;52.224;6.924;2023-07-22T12:48:04;13.10;;;5.60;;
43086;SDS011;28708;52.224;6.924;2023-07-22T12:50:30;9.27;;;5.20;;
43086;SDS011;28708;52.224;6.924;2023-07-22T12:52:57;9.65;;;5.68;;
43086;SDS011;28708;52.224;6.924;2023-07-22T12:55:23;12.02;;;5.97;;
43086;SDS011;28708;52.224;6.924;2023-07-22T12:57:49;8.73;;;5.60;;
43086;SDS011;28708;52.224;6.924;2023-07-22T13:00:15;9.83;;;5.20;;
43086;SDS011;28708;52.224;6.924;2023-07-22T13:02:41;12.17;;;5.97;;
43086;SDS011;28708;52.224;6.924;2023-07-22T13:05:07;9.40;;;5.07;;
43086;SDS011;28708;52.224;6.924;2023-07-22T13:07:33;12.17;;;5.87;;
43086;SDS011;28708;52.224;6.924;2023-07-22T13:09:58;11.80;;;5.27;;
43086;SDS011;28708;52.224;6.924;2023-07-22T13:12:27;12.03;;;5.13;;
43086;SDS011;28708;52.224;6.924;2023-07-22T13:14:53;11.10;;;4.80;;
43086;SDS011;28708;52.224;6.924;2023-07-22T13:17:18;11.73;;;5.50;;
43086;SDS011;28708;52.224;6.924;2023-07-22T13:19:44;11.93;;;6.00;;
43086;SDS011;28708;52.224;6.924;2023-07-22T13:22:10;14.67;;;6.03;;
43086;SDS011;28708;52.224;6.924;2023-07-22T13:24:36;12.23;;;6.23;;
43086;SDS011;28708;52.224;6.924;2023-07-22T13:27:02;10.47;;;6.13;;
43086;SDS011;28708;52.224;6.924;2023-07-22T13:29:28;12.97;;;6.17;;
43086;SDS011;28708;52.224;6.924;2023-07-22T13:31:54;11.77;;;5.80;;
43086;SDS011;28708;52.224;6.924;2023-07-22T13:34:19;10.90;;;6.50;;
43086;SDS011;28708;52.224;6.924;2023-07-22T13:36:45;10.70;;;5.97;;
43086;SDS011;28708;52.224;6.924;2023-07-22T13:39:11;9.60;;;5.67;;
43086;SDS011;28708;52.224;6.924;2023-07-22T13:41:37;12.03;;;6.07;;
43086;SDS011;28708;52.224;6.924;2023-07-22T13:44:03;13.13;;;7.00;;
43086;SDS011;28708;52.224;6.924;2023-07-22T13:46:29;13.57;;;6.27;;
43086;SDS011;28708;52.224;6.924;2023-07-22T13:48:55;10.20;;;6.13;;
43086;SDS011;28708;52.224;6.924;2023-07-22T13:51:20;10.37;;;6.03;;
43086;SDS011;28708;52.224;6.924;2023-07-22T13:53:46;10.30;;;5.20;;
43086;SDS011;28708;52.224;6.924;2023-07-22T13:56:12;8.00;;;5.20;;
43086;SDS011;28708;52.224;6.924;2023-07-22T13:58:37;11.47;;;5.87;;
43086;SDS011;28708;52.224;6.924;2023-07-22T14:01:03;12.20;;;5.67;;
43086;SDS011;28708;52.224;6.924;2023-07-22T14:03:29;8.97;;;5.80;;
43086;SDS011;28708;52.224;6.924;2023-07-22T14:05:54;10.93;;;5.20;;
43086;SDS011;28708;52.224;6.924;2023-07-22T14:08:20;11.17;;;5.43;;
43086;SDS011;28708;52.224;6.924;2023-07-22T14:10:47;10.97;;;5.63;;
43086;SDS011;28708;52.224;6.924;2023-07-22T14:13:13;11.87;;;5.60;;
43086;SDS011;28708;52.224;6.924;2023-07-22T14:15:39;9.37;;;5.30;;
43086;SDS011;28708;52.224;6.924;2023-07-22T14:18:04;11.63;;;6.43;;
43086;SDS011;28708;52.224;6.924;2023-07-22T14:20:30;10.20;;;5.80;;
43086;SDS011;28708;52.224;6.924;2023-07-22T14:22:56;10.73;;;6.10;;
43086;SDS011;28708;52.224;6.924;2023-07-22T14:25:22;12.33;;;5.63;;
43086;SDS011;28708;52.224;6.924;2023-07-22T14:27:48;9.10;;;5.40;;
43086;SDS011;28708;52.224;6.924;2023-07-22T14:30:14;10.73;;;5.67;;
43086;SDS011;28708;52.224;6.924;2023-07-22T14:32:39;12.00;;;5.77;;
43086;SDS011;28708;52.224;6.924;2023-07-22T14:35:05;10.83;;;6.30;;
43086;SDS011;28708;52.224;6.924;2023-07-22T14:37:31;13.50;;;5.93;;
43086;SDS011;28708;52.224;6.924;2023-07-22T14:39:57;9.90;;;5.80;;